Time;durP1;ratioP1;P1;durP2;ratioP2;P2;SDS_P1;SDS_P2;PMS_P1;PMS_P2;Temp;Humidity;BMP_temperature;BMP_pressure;BME280_temperature;BME280_humidity;BME280_pressure;Samples;Min_cycle;Max_cycle;Signal;HPM_P1;HPM_P2
2021/11/02 00:02:15;;;;;;;47.13;29.25;;;;;;;6.07;77.87;99585.13;1676403;85;25887;-83
2021/11/02 00:04:42;;;;;;;50.38;30.45;;;;;;;6.02;77.88;99582.22;1621040;84;26406;-83
2021/11/02 00:07:10;;;;;;;52.65;31.45;;;;;;;5.99;77.94;99584.39;1654494;84;28428;-82
2021/11/02 00:09:42;;;;;;;52.05;31.27;;;;;;;5.98;78.03;99591.56;1668113;83;26544;-83
2021/11/02 00:12:11;;;;;;;52.62;31.45;;;;;;;5.96;78.18;99579.46;1669766;85;25813;-82
2021/11/02 00:14:38;;;;;;;50.70;29.57;;;;;;;5.93;78.50;99577.98;1617604;85;25860;-82
2021/11/02 00:17:14;;;;;;;57.17;32.80;;;;;;;5.89;78.28;99581.18;1612434;85;26451;-82
2021/11/02 00:19:42;;;;;;;52.58;31.95;;;;;;;5.88;78.43;99575.56;1673338;85;28187;-82
2021/11/02 00:22:17;;;;;;;58.48;33.58;;;;;;;5.87;78.53;99576.55;1670827;85;25857;-83
2021/11/02 00:27:25;;;;;;;54.67;32.33;;;;;;;5.80;78.56;99576.42;1685291;83;26134;-82
2021/11/02 00:29:54;;;;;;;52.40;30.35;;;;;;;5.76;78.54;99581.78;1667615;83;25868;-83
2021/11/02 00:32:22;;;;;;;50.48;32.75;;;;;;;5.76;78.72;99573.80;1694244;83;28141;-85
2021/11/02 00:34:49;;;;;;;53.92;31.55;;;;;;;5.71;78.80;99569.52;1664069;83;25874;-83
2021/11/02 00:37:18;;;;;;;55.63;29.60;;;;;;;5.71;78.77;99561.55;1668232;83;26090;-83
2021/11/02 00:39:45;;;;;;;52.67;31.57;;;;;;;5.71;78.84;99559.42;1663053;84;25775;-82
2021/11/02 00:42:13;;;;;;;56.88;33.65;;;;;;;5.68;78.92;99559.28;1677123;84;26314;-82
2021/11/02 00:44:44;;;;;;;54.70;32.53;;;;;;;5.68;78.88;99563.76;1636659;84;27435;-83
2021/11/02 00:47:08;;;;;;;55.55;33.48;;;;;;;5.66;78.99;99563.11;1614592;85;25830;-83
2021/11/02 00:49:38;;;;;;;55.43;31.87;;;;;;;5.63;79.04;99560.80;1653029;85;26223;-83
2021/11/02 00:52:05;;;;;;;55.12;34.00;;;;;;;5.60;79.05;99557.20;1672022;84;26420;-83
2021/11/02 00:54:32;;;;;;;58.58;33.88;;;;;;;5.59;79.31;99563.01;1699434;82;25910;-82
2021/11/02 00:56:59;;;;;;;62.98;32.67;;;;;;;5.55;79.03;99565.70;1664622;85;27647;-83
2021/11/02 00:59:26;;;;;;;55.43;33.08;;;;;;;5.54;79.24;99557.40;1673379;83;25899;-83
2021/11/02 01:01:53;;;;;;;58.38;33.05;;;;;;;5.53;79.29;99562.90;1697163;83;25310;-83
2021/11/02 01:04:21;;;;;;;53.40;32.40;;;;;;;5.50;79.27;99554.78;1668056;83;25956;-83
2021/11/02 01:06:48;;;;;;;58.30;32.98;;;;;;;5.46;79.36;99550.84;1650149;83;25782;-82
2021/11/02 01:09:15;;;;;;;54.73;33.35;;;;;;;5.46;79.34;99546.36;1664756;83;27564;-82
2021/11/02 01:11:43;;;;;;;57.05;33.63;;;;;;;5.48;79.31;99552.81;1690679;83;26145;-82
2021/11/02 01:14:10;;;;;;;55.52;32.33;;;;;;;5.47;79.33;99551.98;1662528;83;25869;-82
2021/11/02 01:16:37;;;;;;;56.65;34.18;;;;;;;5.45;79.34;99547.34;1651173;83;25979;-82
2021/11/02 01:19:04;;;;;;;55.75;33.42;;;;;;;5.42;79.28;99541.58;1664982;85;25859;-83
2021/11/02 01:21:32;;;;;;;63.58;34.85;;;;;;;5.40;79.28;99540.94;1698830;83;28112;-83
2021/11/02 01:23:59;;;;;;;61.02;34.92;;;;;;;5.34;79.37;99533.20;1671803;83;25846;-83
2021/11/02 01:26:27;;;;;;;56.53;33.25;;;;;;;5.32;79.59;99541.02;1668556;85;25390;-82
2021/11/02 01:28:54;;;;;;;57.95;33.83;;;;;;;5.27;79.62;99540.71;1694873;83;25915;-83
2021/11/02 01:31:22;;;;;;;51.90;32.10;;;;;;;5.24;79.67;99535.25;1691862;83;26002;-83
2021/11/02 01:33:49;;;;;;;49.95;31.30;;;;;;;5.21;79.61;99525.50;1671335;83;27501;-82
2021/11/02 01:36:16;;;;;;;56.50;34.75;;;;;;;5.18;79.79;99515.23;1668507;83;25886;-82
2021/11/02 01:38:45;;;;;;;57.15;34.05;;;;;;;5.14;79.88;99512.12;1677090;84;25955;-83
2021/11/02 01:41:18;;;;;;;59.15;34.95;;;;;;;5.11;80.09;99505.02;1685481;83;25914;-83
2021/11/02 01:43:46;;;;;;;61.05;33.75;;;;;;;5.12;80.10;99501.34;1699795;83;26281;-83
2021/11/02 01:46:29;;;;;;;57.50;33.28;;;;;;;5.08;80.09;99495.58;1672778;84;27484;-82
2021/11/02 01:48:59;;;;;;;59.00;36.13;;;;;;;5.09;80.35;99495.09;1661885;84;25333;-82
2021/11/02 01:51:30;;;;;;;57.03;34.58;;;;;;;5.09;80.28;99495.89;1691642;84;25876;-82
2021/11/02 01:53:59;;;;;;;60.92;34.95;;;;;;;5.06;80.39;99494.94;1663061;84;25849;-83
2021/11/02 01:56:28;;;;;;;57.85;35.52;;;;;;;5.04;80.47;99488.16;1693624;84;25806;-83
2021/11/02 01:58:57;;;;;;;58.83;34.15;;;;;;;5.04;80.47;99481.52;1653649;84;28268;-82
2021/11/02 02:01:51;;;;;;;60.80;35.55;;;;;;;5.03;80.63;99475.87;1691652;84;26001;-82
2021/11/02 02:04:49;;;;;;;61.35;36.45;;;;;;;5.01;80.57;99466.77;1657487;84;26503;-83
2021/11/02 02:07:44;;;;;;;62.17;37.60;;;;;;;4.99;80.65;99461.31;1686757;84;25809;-82
2021/11/02 02:10:49;;;;;;;64.45;38.75;;;;;;;4.97;80.79;99477.91;1695047;83;25922;-83
2021/11/02 02:13:28;;;;;;;59.77;35.75;;;;;;;4.89;80.86;99502.70;1695970;83;27580;-82
2021/11/02 02:16:19;;;;;;;56.98;35.03;;;;;;;4.85;80.94;99484.66;1671386;83;34947;-84
2021/11/02 02:19:05;;;;;;;66.75;37.85;;;;;;;4.84;81.00;99489.13;1659699;83;26064;-82
2021/11/02 02:21:49;;;;;;;58.02;33.75;;;;;;;4.75;81.08;99501.31;1687882;83;26631;-82
2021/11/02 02:24:50;;;;;;;64.60;36.85;;;;;;;4.68;81.02;99495.89;1698531;83;25362;-83
2021/11/02 02:27:30;;;;;;;61.60;34.35;;;;;;;4.68;81.04;99495.89;1698346;83;27585;-82
2021/11/02 02:30:03;;;;;;;53.80;34.27;;;;;;;4.64;81.00;99515.28;1679369;83;25842;-82
2021/11/02 02:32:33;;;;;;;62.30;35.28;;;;;;;4.61;80.96;99514.33;1691432;83;25841;-83
2021/11/02 02:35:08;;;;;;;59.80;34.13;;;;;;;4.64;80.99;99518.46;1648015;85;25914;-83
2021/11/02 02:37:33;;;;;;;62.00;35.63;;;;;;;4.67;80.83;99519.42;1699973;83;25813;-84
2021/11/02 02:40:03;;;;;;;58.13;34.20;;;;;;;4.66;80.69;99512.48;1657361;83;28200;-82
2021/11/02 02:42:32;;;;;;;62.98;36.28;;;;;;;4.67;80.63;99514.95;1697464;83;25338;-82
2021/11/02 02:45:00;;;;;;;63.95;37.23;;;;;;;4.69;80.52;99506.31;1688468;84;25853;-82
2021/11/02 02:47:30;;;;;;;66.25;36.05;;;;;;;4.69;80.35;99502.83;1696326;82;25960;-82
2021/11/02 02:49:59;;;;;;;64.60;36.17;;;;;;;4.69;80.24;99501.50;1657001;83;25901;-83
2021/11/02 02:52:29;;;;;;;64.82;37.08;;;;;;;4.69;80.33;99507.64;1683150;83;27606;-82
2021/11/02 02:54:58;;;;;;;67.65;36.85;;;;;;;4.69;80.36;99499.69;1698983;83;25926;-82
2021/11/02 02:57:28;;;;;;;66.28;37.23;;;;;;;4.72;80.35;99493.70;1654714;83;26352;-83
2021/11/02 02:59:57;;;;;;;64.07;38.00;;;;;;;4.74;80.35;99495.67;1655743;83;25826;-84
2021/11/02 03:02:30;;;;;;;62.80;37.17;;;;;;;4.72;80.31;99484.41;1695859;83;25843;-82
2021/11/02 03:04:59;;;;;;;64.15;36.00;;;;;;;4.72;80.32;99485.25;1691736;83;27487;-83
2021/11/02 03:07:27;;;;;;;67.05;38.25;;;;;;;4.74;80.35;99482.41;1694979;83;34926;-83
2021/11/02 03:09:56;;;;;;;59.80;35.17;;;;;;;4.75;80.50;99476.12;1654474;81;25445;-83
2021/11/02 03:12:35;;;;;;;60.98;36.40;;;;;;;4.77;80.73;99462.98;1692502;82;25863;-83
2021/11/02 03:43:40;;;;;;;61.30;37.13;;;;;;;4.51;81.30;99432.02;1683196;82;25755;-82
2021/11/02 03:48:56;;;;;;;66.75;37.17;;;;;;;4.51;81.52;99425.40;1696345;82;25841;-83
2021/11/02 03:51:42;;;;;;;73.87;36.28;;;;;;;4.50;81.45;99425.06;1682251;81;26471;-82
2021/11/02 03:56:45;;;;;;;67.00;38.15;;;;;;;4.44;81.70;99431.91;1720288;82;25825;-83
2021/11/02 04:46:17;;;;;;;69.80;38.78;;;;;;;3.95;82.72;99395.26;1662424;84;25809;-83
2021/11/02 05:13:39;;;;;;;66.70;36.80;;;;;;;4.08;83.50;99431.29;1691085;84;25771;-82
2021/11/02 05:49:15;;;;;;;78.83;43.02;;;;;;;4.03;84.07;99414.59;1689842;84;27638;-83
2021/11/02 05:59:31;;;;;;;71.07;40.38;;;;;;;4.14;84.59;99417.34;1725986;81;25920;-82
2021/11/02 06:02:30;;;;;;;71.25;40.12;;;;;;;4.16;84.57;99414.02;1702280;83;28101;-82
2021/11/02 06:29:31;;;;;;;69.65;41.00;;;;;;;4.31;85.26;99418.89;1676325;84;28270;-82
2021/11/02 06:32:06;;;;;;;75.87;41.65;;;;;;;4.33;85.22;99418.21;1657072;84;25822;-82
2021/11/02 06:34:43;;;;;;;66.12;40.50;;;;;;;4.35;85.29;99425.00;1663757;84;26532;-84
2021/11/02 06:39:54;;;;;;;72.42;40.00;;;;;;;4.39;85.31;99409.55;1682429;83;25886;-82
2021/11/02 06:42:41;;;;;;;75.25;41.15;;;;;;;4.40;85.32;99405.42;1681202;84;27525;-82
2021/11/02 06:48:58;;;;;;;77.30;42.10;;;;;;;4.49;85.36;99414.94;1651954;84;26238;-83
2021/11/02 07:19:32;;;;;;;72.00;41.28;;;;;;;4.86;85.28;99407.53;1656464;84;26322;-82
2021/11/02 08:46:36;;;;;;;66.57;38.88;;;;;;;6.56;83.79;99396.52;1675956;84;25836;-85
2021/11/02 08:48:57;;;;;;;70.22;38.35;;;;;;;6.66;83.92;99391.70;1697903;84;27651;-85
2021/11/02 08:51:25;;;;;;;68.70;41.33;;;;;;;6.71;83.88;99390.63;1664685;85;25886;-86
2021/11/02 08:53:54;;;;;;;59.45;35.73;;;;;;;6.77;83.65;99383.20;1653252;84;25814;-86
2021/11/02 08:56:22;;;;;;;66.87;41.50;;;;;;;6.84;83.59;99389.38;1652002;84;25909;-86
2021/11/02 08:58:52;;;;;;;65.32;40.03;;;;;;;6.91;83.62;99382.28;1703767;84;25840;-86
2021/11/02 09:01:25;;;;;;;60.80;36.97;;;;;;;7.05;83.35;99381.06;1648778;85;27464;-86
2021/11/02 09:04:00;;;;;;;62.48;38.15;;;;;;;7.05;83.35;99381.06;1647288;85;26458;-85
2021/11/02 09:06:27;;;;;;;57.10;36.38;;;;;;;7.12;83.26;99387.27;1626635;85;26026;-85
2021/11/02 09:08:58;;;;;;;61.68;35.25;;;;;;;7.20;83.36;99377.79;1696927;84;25844;-85
2021/11/02 09:11:28;;;;;;;63.33;39.18;;;;;;;7.25;82.79;99376.70;1664950;85;26451;-85
2021/11/02 09:13:57;;;;;;;67.22;39.53;;;;;;;7.30;82.62;99376.42;1626942;85;27572;-86
2021/11/02 09:16:26;;;;;;;64.25;40.15;;;;;;;7.35;82.34;99379.84;1643158;84;25364;-85
2021/11/02 09:18:55;;;;;;;62.33;38.63;;;;;;;7.41;82.21;99381.71;1704146;84;26422;-87
2021/11/02 09:21:23;;;;;;;65.32;40.95;;;;;;;7.43;82.05;99375.17;1658470;84;25873;-85
2021/11/02 09:23:53;;;;;;;65.52;38.58;;;;;;;7.48;82.17;99377.25;1664669;84;25528;-86
2021/11/02 09:26:25;;;;;;;58.65;40.90;;;;;;;7.53;82.01;99378.30;1649453;84;28073;-81
2021/11/02 09:28:53;;;;;;;64.00;37.35;;;;;;;7.56;81.66;99379.25;1679814;84;26589;-83
2021/11/02 09:31:26;;;;;;;63.98;39.13;;;;;;;7.58;81.39;99383.87;1681724;84;25846;-85
2021/11/02 09:33:51;;;;;;;62.40;37.73;;;;;;;7.60;81.20;99378.33;1634185;85;25817;-85
2021/11/02 09:36:23;;;;;;;64.25;37.78;;;;;;;7.61;81.01;99378.66;1649733;84;25351;-85
2021/11/02 09:39:01;;;;;;;53.60;34.67;;;;;;;7.61;80.94;99376.80;1697035;84;27466;-84
2021/11/02 09:42:04;;;;;;;58.70;37.20;;;;;;;7.63;80.85;99375.28;1659724;84;25847;-85
2021/11/02 09:44:53;;;;;;;67.78;40.58;;;;;;;7.65;80.83;99370.58;1704295;84;25973;-84
2021/11/02 09:47:36;;;;;;;60.55;38.00;;;;;;;7.68;80.81;99370.16;1648575;84;26681;-85
2021/11/02 09:50:26;;;;;;;56.20;36.05;;;;;;;7.68;80.74;99372.83;1675800;84;25887;-84
2021/11/02 09:53:36;;;;;;;58.78;35.00;;;;;;;7.71;80.71;99375.11;1661740;83;28235;-85
2021/11/02 09:56:36;;;;;;;53.90;35.58;;;;;;;7.73;80.54;99373.90;1670951;84;25973;-85
2021/11/02 09:59:42;;;;;;;60.90;35.70;;;;;;;7.76;80.59;99378.81;1658106;84;25372;-85
2021/11/02 10:02:50;;;;;;;58.78;36.42;;;;;;;7.79;80.63;99378.44;1689229;84;25925;-84
2021/11/02 10:05:49;;;;;;;58.55;36.73;;;;;;;7.83;80.46;99376.72;1704469;83;25814;-85
2021/11/02 10:08:33;;;;;;;57.98;35.30;;;;;;;7.87;80.55;99363.30;1695341;83;28254;-84
2021/11/02 10:11:46;;;;;;;53.60;33.05;;;;;;;7.89;80.47;99357.25;1657121;84;26049;-84
2021/11/02 10:14:43;;;;;;;51.40;33.95;;;;;;;7.92;80.21;99356.84;1689293;84;25878;-87
2021/11/02 10:17:36;;;;;;;60.88;35.92;;;;;;;7.94;80.20;99346.28;1684275;84;26477;-80
2021/11/02 10:20:27;;;;;;;57.48;35.25;;;;;;;8.01;80.34;99350.31;1693399;84;25889;-83
2021/11/02 10:23:29;;;;;;;58.63;36.53;;;;;;;8.09;80.32;99354.13;1639695;82;27245;-83
2021/11/02 10:26:27;;;;;;;52.23;32.03;;;;;;;8.17;80.20;99352.63;1687959;84;25756;-82
2021/11/02 10:29:27;;;;;;;55.78;36.85;;;;;;;8.26;80.41;99348.25;1667610;82;25932;-83
2021/11/02 10:32:06;;;;;;;55.83;35.50;;;;;;;8.39;80.18;99356.29;1683952;82;26493;-83
2021/11/02 10:35:05;;;;;;;54.05;35.63;;;;;;;8.49;80.26;99359.38;1651480;84;26029;-83
2021/11/02 10:37:48;;;;;;;55.63;32.70;;;;;;;8.61;79.96;99353.44;1682327;84;27525;-83
2021/11/02 10:40:34;;;;;;;53.48;33.67;;;;;;;8.70;79.73;99341.03;1652969;84;25395;-82
2021/11/02 10:43:54;;;;;;;51.85;33.92;;;;;;;8.79;79.78;99336.31;1683270;84;25950;-82
2021/11/02 10:46:34;;;;;;;56.13;35.10;;;;;;;8.86;79.44;99335.77;1659660;84;26290;-84
2021/11/02 10:49:16;;;;;;;51.50;32.80;;;;;;;8.94;79.42;99336.38;1685360;84;25784;-83
2021/11/02 10:52:05;;;;;;;53.38;33.10;;;;;;;9.00;79.07;99329.41;1685276;84;27634;-83
2021/11/02 10:54:57;;;;;;;52.00;33.20;;;;;;;9.04;78.71;99329.30;1638024;84;25919;-83
2021/11/02 10:57:41;;;;;;;59.20;34.10;;;;;;;9.07;78.50;99324.86;1634358;84;25918;-83
2021/11/02 11:00:10;;;;;;;62.20;35.15;;;;;;;9.11;78.76;99323.44;1694050;84;26481;-83
2021/11/02 11:02:38;;;;;;;61.08;37.40;;;;;;;9.14;78.79;99312.32;1659517;85;26191;-82
2021/11/02 11:05:08;;;;;;;57.30;35.13;;;;;;;9.19;78.79;99313.36;1646730;84;27021;-82
2021/11/02 11:07:45;;;;;;;56.20;34.43;;;;;;;9.24;78.31;99307.36;1633248;84;25583;-82
2021/11/02 11:10:15;;;;;;;56.68;35.15;;;;;;;9.27;78.05;99307.78;1682820;84;25809;-82
2021/11/02 11:12:54;;;;;;;60.43;35.58;;;;;;;9.30;78.11;99302.54;1655172;85;25910;-83
2021/11/02 11:15:22;;;;;;;55.65;33.38;;;;;;;9.32;77.85;99305.28;1656584;84;25894;-83
2021/11/02 11:17:54;;;;;;;52.27;33.78;;;;;;;9.37;77.98;99310.54;1654042;85;28163;-82
2021/11/02 11:20:23;;;;;;;55.65;32.95;;;;;;;9.39;77.43;99312.48;1689776;83;25958;-82
2021/11/02 11:22:53;;;;;;;53.87;33.02;;;;;;;9.40;77.50;99314.94;1695097;83;25812;-83
2021/11/02 11:25:29;;;;;;;49.15;31.93;;;;;;;9.41;77.26;99313.09;1636197;83;26024;-82
2021/11/02 11:27:58;;;;;;;53.63;33.30;;;;;;;9.42;77.11;99315.55;1709980;83;26544;-83
2021/11/02 11:30:35;;;;;;;52.50;31.93;;;;;;;9.44;76.97;99320.16;1671613;83;27542;-83
2021/11/02 11:33:14;;;;;;;47.65;31.75;;;;;;;9.46;76.82;99326.62;1694582;83;26617;-82
2021/11/02 11:35:43;;;;;;;55.63;33.48;;;;;;;9.44;77.00;99318.83;1678877;83;25392;-82
2021/11/02 11:38:14;;;;;;;53.92;32.78;;;;;;;9.45;76.79;99328.50;1676689;84;25777;-83
2021/11/02 11:40:44;;;;;;;53.23;33.05;;;;;;;9.44;76.74;99326.84;1670423;84;26587;-83
2021/11/02 11:43:14;;;;;;;47.07;31.00;;;;;;;9.44;76.57;99322.83;1697881;84;27532;-82
2021/11/02 11:45:52;;;;;;;53.90;31.70;;;;;;;9.44;76.54;99324.17;1656561;85;26008;-83
2021/11/02 11:48:27;;;;;;;51.90;32.45;;;;;;;9.43;76.52;99325.19;1646376;84;25827;-83
2021/11/02 11:50:58;;;;;;;54.75;32.00;;;;;;;9.42;76.43;99324.90;1646413;83;26318;-83
2021/11/02 11:53:29;;;;;;;50.33;32.85;;;;;;;9.42;76.60;99322.23;1697501;83;25748;-83
2021/11/02 11:56:13;;;;;;;53.95;32.78;;;;;;;9.43;76.42;99318.50;1622477;84;27494;-82
2021/11/02 11:58:51;;;;;;;54.88;34.98;;;;;;;9.44;76.57;99316.66;1656806;85;25829;-82
2021/11/02 12:01:47;;;;;;;62.40;35.40;;;;;;;9.43;76.42;99311.83;1685885;83;25449;-82
2021/11/02 12:04:40;;;;;;;55.70;34.20;;;;;;;9.44;76.72;99311.31;1683533;84;25810;-82
2021/11/02 12:07:29;;;;;;;49.90;32.05;;;;;;;9.44;76.96;99310.81;1661635;85;25943;-83
2021/11/02 12:10:06;;;;;;;53.08;32.75;;;;;;;9.44;77.34;99312.65;1673681;84;27543;-82
2021/11/02 12:12:36;;;;;;;49.75;32.17;;;;;;;9.43;77.50;99311.83;1655380;84;25869;-83
2021/11/02 12:15:14;;;;;;;54.53;33.95;;;;;;;9.43;77.53;99305.69;1683168;84;25843;-83
2021/11/02 12:17:44;;;;;;;50.88;32.85;;;;;;;9.45;77.73;99306.29;1605867;86;25871;-82
2021/11/02 12:20:16;;;;;;;50.60;31.55;;;;;;;9.44;77.80;99304.63;1647358;84;25942;-82
2021/11/02 12:22:59;;;;;;;51.80;32.78;;;;;;;9.42;77.70;99317.39;1672886;85;27571;-83
2021/11/02 12:25:33;;;;;;;52.08;31.80;;;;;;;9.39;77.50;99314.61;1691541;84;25838;-83
2021/11/02 12:28:02;;;;;;;52.15;31.75;;;;;;;9.36;77.46;99312.38;1656761;83;26583;-82
2021/11/02 12:30:29;;;;;;;50.52;32.03;;;;;;;9.36;77.76;99317.73;1673691;83;26633;-82
2021/11/02 12:32:59;;;;;;;54.70;31.73;;;;;;;9.37;77.98;99321.23;1688238;83;25778;-82
2021/11/02 12:35:42;;;;;;;49.98;33.48;;;;;;;9.36;78.09;99316.90;1672460;83;28310;-83
2021/11/02 12:38:13;;;;;;;50.65;32.42;;;;;;;9.33;78.10;99325.64;1648365;83;26090;-83
2021/11/02 12:40:45;;;;;;;48.85;31.70;;;;;;;9.31;78.30;99320.19;1663598;84;25890;-82
2021/11/02 12:43:31;;;;;;;50.05;31.57;;;;;;;9.28;78.56;99328.11;1666577;83;25794;-82
2021/11/02 12:46:01;;;;;;;51.30;32.53;;;;;;;9.26;78.73;99339.52;1688909;83;25857;-81
2021/11/02 12:48:29;;;;;;;50.75;33.05;;;;;;;9.23;79.11;99345.30;1667285;83;27506;-81
2021/11/02 12:50:57;;;;;;;51.92;33.65;;;;;;;9.20;79.12;99346.21;1669272;83;27027;-81
2021/11/02 12:53:30;;;;;;;56.05;33.02;;;;;;;9.17;79.41;99346.65;1665144;83;25909;-82
2021/11/02 12:56:02;;;;;;;58.10;34.18;;;;;;;9.15;79.57;99346.03;1695815;83;25863;-83
2021/11/02 12:58:29;;;;;;;52.33;33.70;;;;;;;9.11;79.80;99341.60;1652489;83;25826;-82
2021/11/02 13:00:59;;;;;;;52.40;34.05;;;;;;;9.09;80.12;99341.50;1671987;83;27476;-82
2021/11/02 13:03:32;;;;;;;54.48;33.25;;;;;;;9.07;80.36;99342.22;1680311;83;25888;-82
2021/11/02 13:06:09;;;;;;;54.08;35.05;;;;;;;9.04;80.38;99339.48;1701678;83;26214;-82
2021/11/02 13:08:57;;;;;;;54.65;33.85;;;;;;;9.00;80.74;99340.89;1659878;84;25900;-82
2021/11/02 13:11:26;;;;;;;51.73;34.65;;;;;;;8.98;80.80;99341.61;1674974;83;25876;-82
2021/11/02 13:14:07;;;;;;;54.67;35.55;;;;;;;8.97;81.07;99345.83;1690191;83;27533;-82
2021/11/02 13:17:01;;;;;;;61.13;36.23;;;;;;;8.95;81.16;99347.39;1713441;83;25821;-82
2021/11/02 13:19:44;;;;;;;57.23;34.88;;;;;;;8.94;81.52;99347.06;1655909;83;25850;-82
2021/11/02 13:22:18;;;;;;;58.23;34.65;;;;;;;8.90;81.65;99345.84;1635326;84;26494;-82
2021/11/02 13:25:09;;;;;;;56.58;34.90;;;;;;;8.86;81.88;99349.95;1701664;82;25862;-83
2021/11/02 13:27:43;;;;;;;58.90;36.42;;;;;;;8.84;82.06;99344.00;1694143;83;27531;-82
2021/11/02 13:30:38;;;;;;;62.50;37.45;;;;;;;8.82;82.38;99346.56;1643304;83;26363;-81
2021/11/02 13:33:23;;;;;;;56.15;34.63;;;;;;;8.79;82.45;99346.98;1651030;83;25865;-81
2021/11/02 13:51:41;;;;;;;60.48;40.30;;;;;;;9.37;81.81;99339.39;1734266;81;25738;-82
2021/11/02 13:54:10;;;;;;;53.80;36.50;;;;;;;9.19;82.46;99343.25;1661601;84;25835;-82
2021/11/02 13:56:42;;;;;;;56.20;36.30;;;;;;;9.10;82.72;99335.14;1649595;83;27415;-83
2021/11/02 13:59:11;;;;;;;54.60;34.67;;;;;;;9.03;82.95;99339.66;1717011;83;25724;-82
2021/11/02 14:01:46;;;;;;;57.27;35.60;;;;;;;8.95;83.21;99334.03;1714351;83;25946;-82
2021/11/02 14:04:39;;;;;;;54.18;36.33;;;;;;;8.90;83.39;99337.00;1666806;83;26029;-82
2021/11/02 14:07:14;;;;;;;59.63;37.13;;;;;;;8.87;83.67;99338.77;1660573;83;25982;-84
2021/11/02 14:09:45;;;;;;;57.45;36.60;;;;;;;8.77;83.74;99329.81;1695068;83;28240;-83
2021/11/02 14:12:29;;;;;;;53.15;35.50;;;;;;;8.72;83.99;99336.31;1704347;83;25905;-82
2021/11/02 14:15:16;;;;;;;58.42;35.15;;;;;;;8.68;84.15;99339.09;1668164;83;25792;-82
2021/11/02 14:18:05;;;;;;;59.75;35.52;;;;;;;8.64;84.36;99341.03;1677766;83;25895;-82
2021/11/02 14:20:51;;;;;;;60.75;37.45;;;;;;;8.61;84.56;99339.59;1708308;83;25766;-82
2021/11/02 14:23:41;;;;;;;60.78;35.58;;;;;;;8.59;84.75;99336.30;1679103;83;28225;-82
2021/11/02 14:26:24;;;;;;;59.93;36.20;;;;;;;8.57;84.79;99342.86;1658275;83;26286;-82
2021/11/02 14:28:59;;;;;;;60.80;37.53;;;;;;;8.55;85.14;99343.88;1659095;84;26748;-83
2021/11/02 14:31:41;;;;;;;61.75;37.10;;;;;;;8.53;85.19;99332.58;1678514;84;25927;-82
2021/11/02 14:34:08;;;;;;;64.58;36.63;;;;;;;8.52;85.44;99331.46;1658344;85;26423;-83
2021/11/02 14:36:40;;;;;;;64.03;38.10;;;;;;;8.51;85.56;99339.97;1650831;84;28139;-82
2021/11/02 14:39:12;;;;;;;67.08;40.40;;;;;;;8.51;85.54;99335.17;1603496;84;25838;-83
2021/11/02 14:41:49;;;;;;;70.50;43.78;;;;;;;8.53;85.74;99339.79;1673312;84;25859;-82
2021/11/02 14:44:23;;;;;;;165.95;111.17;;;;;;;8.52;85.86;99337.63;1680256;84;25897;-82
2021/11/02 14:46:54;;;;;;;96.70;58.78;;;;;;;8.52;85.86;99336.30;1661280;85;25339;-83
2021/11/02 14:49:37;;;;;;;79.42;55.85;;;;;;;8.55;86.01;99334.53;1604189;85;26953;-82
2021/11/02 14:52:07;;;;;;;73.95;50.12;;;;;;;8.54;85.98;99329.41;1673333;84;26183;-82
2021/11/02 14:54:46;;;;;;;73.37;46.30;;;;;;;8.54;86.13;99333.41;1657317;86;26279;-82
2021/11/02 14:57:27;;;;;;;77.03;46.75;;;;;;;8.52;86.14;99334.96;1610775;86;25871;-82
2021/11/02 15:00:01;;;;;;;71.85;41.63;;;;;;;8.53;86.28;99335.25;1626055;86;25881;-82
2021/11/02 15:02:44;;;;;;;70.83;44.00;;;;;;;8.53;86.41;99333.12;1657608;86;27467;-82
2021/11/02 15:05:15;;;;;;;92.80;60.95;;;;;;;8.52;86.51;99331.46;1656947;86;26563;-82
2021/11/02 15:07:45;;;;;;;82.60;51.88;;;;;;;8.51;86.59;99330.63;1636534;84;26688;-83
2021/11/02 15:10:16;;;;;;;72.92;47.05;;;;;;;8.52;86.67;99326.95;1611185;84;25961;-82
2021/11/02 15:12:49;;;;;;;71.22;42.43;;;;;;;8.49;86.61;99322.52;1657680;86;25884;-82
2021/11/02 15:15:16;;;;;;;76.77;47.17;;;;;;;8.49;86.70;99331.35;1628315;86;27550;-82
2021/11/02 15:17:43;;;;;;;63.85;40.30;;;;;;;8.50;86.82;99322.84;1628014;87;25844;-83
2021/11/02 15:20:10;;;;;;;66.77;41.02;;;;;;;8.52;86.87;99326.12;1621957;86;25575;-82
2021/11/02 15:22:38;;;;;;;65.03;42.40;;;;;;;8.50;86.94;99324.17;1683174;84;25404;-82
2021/11/02 15:25:07;;;;;;;67.03;43.48;;;;;;;8.49;86.91;99324.68;1672483;84;25338;-83
2021/11/02 15:27:37;;;;;;;64.55;40.65;;;;;;;8.51;87.07;99320.50;1681704;84;29137;-82
2021/11/02 15:30:09;;;;;;;68.73;43.93;;;;;;;8.49;87.07;99317.17;1631881;84;25871;-82
2021/11/02 15:32:43;;;;;;;67.67;41.88;;;;;;;8.48;87.13;99320.89;1678890;84;26135;-81
2021/11/02 15:35:15;;;;;;;61.20;41.02;;;;;;;8.49;87.24;99322.52;1662488;85;25443;-82
2021/11/02 15:37:46;;;;;;;65.87;43.15;;;;;;;8.47;87.31;99321.39;1622184;85;26650;-82
2021/11/02 15:40:36;;;;;;;64.35;41.50;;;;;;;8.46;87.35;99321.61;1639923;85;29042;-82
2021/11/02 15:43:00;;;;;;;76.95;45.88;;;;;;;8.46;87.51;99321.61;1662977;85;25860;-82
2021/11/02 15:45:35;;;;;;;90.87;60.17;;;;;;;8.44;87.52;99318.33;1667592;85;26481;-81
2021/11/02 15:48:16;;;;;;;82.35;53.20;;;;;;;8.43;87.56;99314.83;1610436;85;25938;-82
2021/11/02 15:50:52;;;;;;;80.80;50.28;;;;;;;8.43;87.69;99312.16;1615337;86;26018;-82
2021/11/02 15:53:22;;;;;;;75.45;45.92;;;;;;;8.42;87.79;99316.38;1665969;85;27653;-82
2021/11/02 15:55:56;;;;;;;78.40;47.23;;;;;;;8.43;87.90;99320.67;1664021;85;26292;-83
2021/11/02 15:58:25;;;;;;;87.27;48.25;;;;;;;8.44;88.04;99317.81;1592085;85;25858;-82
2021/11/02 16:00:52;;;;;;;79.80;48.33;;;;;;;8.43;88.06;99316.16;1617366;87;25821;-82
2021/11/02 16:03:19;;;;;;;87.82;52.73;;;;;;;8.43;88.07;99325.50;1651973;85;25786;-82
2021/11/02 16:05:46;;;;;;;111.55;70.85;;;;;;;8.43;88.06;99328.17;1663003;85;27475;-83
2021/11/02 16:08:22;;;;;;;136.35;84.60;;;;;;;8.44;88.21;99324.49;1597673;87;25442;-83
2021/11/02 16:10:57;;;;;;;147.13;88.47;;;;;;;8.43;88.24;99322.83;1609351;87;25925;-83
2021/11/02 16:13:27;;;;;;;139.68;82.88;;;;;;;8.42;88.33;99328.38;1663409;85;25766;-82
2021/11/02 16:15:54;;;;;;;144.00;91.37;;;;;;;8.41;88.36;99328.89;1650794;86;27051;-82
2021/11/02 16:18:25;;;;;;;95.12;58.70;;;;;;;8.41;88.47;99325.39;1618911;86;27493;-83
2021/11/02 16:21:03;;;;;;;81.22;52.48;;;;;;;8.43;88.56;99331.34;1612065;85;25898;-82
2021/11/02 16:23:49;;;;;;;85.40;53.68;;;;;;;8.40;88.53;99331.77;1663572;85;25359;-82
2021/11/02 16:26:19;;;;;;;106.40;70.65;;;;;;;8.40;88.60;99334.44;1676824;84;25815;-82
2021/11/02 16:28:47;;;;;;;99.58;63.10;;;;;;;8.38;88.71;99331.16;1647403;84;25926;-82
2021/11/02 16:31:30;;;;;;;94.55;65.87;;;;;;;8.38;88.85;99327.15;1637399;84;27040;-82
2021/11/02 16:33:58;;;;;;;99.70;63.55;;;;;;;8.37;88.96;99333.50;1678927;84;25862;-83
2021/11/02 16:36:29;;;;;;;100.10;59.30;;;;;;;8.36;89.12;99327.33;1667585;85;25720;-82
2021/11/02 16:39:04;;;;;;;84.40;54.83;;;;;;;8.36;89.08;99331.33;1594337;86;26203;-82
2021/11/02 16:41:49;;;;;;;83.15;53.20;;;;;;;8.35;89.11;99335.05;1611823;84;26628;-82
2021/11/02 16:44:30;;;;;;;87.10;53.68;;;;;;;8.36;89.22;99334.53;1658431;86;28239;-82
2021/11/02 16:47:13;;;;;;;89.58;53.85;;;;;;;8.35;89.33;99336.88;1653252;86;25882;-82
2021/11/02 16:49:44;;;;;;;96.70;54.67;;;;;;;8.36;89.42;99338.54;1639672;84;25961;-82
2021/11/02 16:52:29;;;;;;;96.02;57.62;;;;;;;8.35;89.47;99335.55;1619301;86;25845;-82
2021/11/02 16:55:14;;;;;;;91.25;53.87;;;;;;;8.34;89.63;99336.59;1640605;86;25982;-82
2021/11/02 16:57:42;;;;;;;85.87;54.27;;;;;;;8.32;89.72;99340.77;1655413;86;28186;-82
2021/11/02 17:00:15;;;;;;;95.42;57.45;;;;;;;8.33;89.82;99345.09;1636276;86;25858;-82
2021/11/02 17:02:46;;;;;;;93.52;55.30;;;;;;;8.36;89.85;99348.67;1657283;85;25540;-82
2021/11/02 17:05:22;;;;;;;87.30;52.30;;;;;;;8.38;89.92;99347.95;1665830;85;25894;-82
2021/11/02 17:08:04;;;;;;;86.30;52.03;;;;;;;8.39;89.91;99344.78;1685231;83;25931;-82
2021/11/02 17:10:52;;;;;;;87.65;54.15;;;;;;;8.41;89.92;99345.41;1639227;86;27509;-82
2021/11/02 17:13:35;;;;;;;88.87;52.43;;;;;;;8.42;90.06;99344.39;1620437;85;26128;-82